Time;durP1;ratioP1;P1;durP2;ratioP2;P2;SDS_P1;SDS_P2;PMS_P1;PMS_P2;Temp;Humidity;BMP_temperature;BMP_pressure;BME280_temperature;BME280_humidity;BME280_pressure;Samples;Min_cycle;Max_cycle;Signal;HPM_P1;HPM_P2
2024/01/24 00:01:13;;;;;;;86.35;52.47;;;3.20;99.90;;;;;;5053387;28;20403;-62
2024/01/24 00:03:38;;;;;;;139.05;60.47;;;3.20;99.90;;;;;;5053132;28;20083;-65
2024/01/24 00:06:04;;;;;;;66.55;42.80;;;3.20;99.90;;;;;;5052204;28;20037;-63
2024/01/24 00:08:30;;;;;;;59.20;38.65;;;3.10;99.90;;;;;;5053540;28;20017;-63
2024/01/24 00:10:55;;;;;;;47.90;32.58;;;3.10;99.90;;;;;;5053296;28;20033;-67
2024/01/24 00:13:21;;;;;;;92.50;52.80;;;3.10;99.90;;;;;;5053334;28;20021;-66
2024/01/24 00:15:47;;;;;;;228.10;96.22;;;3.10;99.90;;;;;;5053138;28;20434;-64
2024/01/24 00:18:13;;;;;;;59.67;41.83;;;3.00;99.90;;;;;;5053131;28;20032;-63
2024/01/24 00:20:38;;;;;;;132.25;75.40;;;2.90;99.90;;;;;;5053254;28;20021;-67
2024/01/24 00:23:04;;;;;;;121.07;75.05;;;3.00;99.90;;;;;;5053267;28;20060;-66
2024/01/24 00:25:29;;;;;;;126.35;77.15;;;2.90;99.90;;;;;;5053113;28;20028;-67
2024/01/24 00:27:55;;;;;;;105.15;67.85;;;2.80;99.90;;;;;;5053422;28;20101;-65
2024/01/24 00:30:21;;;;;;;120.10;79.00;;;2.80;99.90;;;;;;5052606;28;20083;-62
2024/01/24 00:32:47;;;;;;;63.70;46.00;;;2.90;99.90;;;;;;5053098;28;20021;-63
2024/01/24 00:35:13;;;;;;;59.47;41.47;;;2.90;99.90;;;;;;5052990;28;20108;-63
2024/01/24 00:37:38;;;;;;;50.00;36.05;;;2.90;99.90;;;;;;5053108;28;20035;-66
2024/01/24 00:40:04;;;;;;;45.97;32.05;;;3.00;99.90;;;;;;5053063;28;20029;-63
2024/01/24 00:42:30;;;;;;;42.42;30.05;;;3.00;99.90;;;;;;5053021;28;20025;-63
2024/01/24 00:44:56;;;;;;;41.50;27.38;;;3.00;99.90;;;;;;5052909;28;20087;-66
2024/01/24 00:47:21;;;;;;;50.30;32.30;;;3.00;99.90;;;;;;5053093;28;20035;-63
2024/01/24 00:49:47;;;;;;;41.90;27.85;;;3.00;99.90;;;;;;5052927;28;20102;-64
2024/01/24 00:52:13;;;;;;;31.08;22.90;;;3.10;99.90;;;;;;5052996;28;20056;-66
2024/01/24 00:54:39;;;;;;;45.85;26.35;;;3.10;99.90;;;;;;5051756;28;20368;-67
2024/01/24 00:57:05;;;;;;;35.80;23.63;;;3.10;99.90;;;;;;5052834;28;20078;-65
2024/01/24 00:59:30;;;;;;;43.03;23.42;;;3.00;99.90;;;;;;5052811;28;20021;-63
2024/01/24 01:01:56;;;;;;;158.75;65.38;;;3.00;99.90;;;;;;5052780;28;20027;-67
2024/01/24 01:04:22;;;;;;;29.63;23.77;;;3.00;99.90;;;;;;5052713;28;20048;-64
2024/01/24 01:06:48;;;;;;;43.60;26.02;;;2.90;99.90;;;;;;5052691;28;20542;-63
2024/01/24 01:09:13;;;;;;;29.77;21.35;;;2.90;99.90;;;;;;5051555;28;20025;-65
2024/01/24 01:11:39;;;;;;;98.57;54.85;;;2.90;99.90;;;;;;5052789;28;20028;-66
2024/01/24 01:14:05;;;;;;;213.32;105.95;;;2.90;99.90;;;;;;5052456;28;20155;-67
2024/01/24 01:16:31;;;;;;;340.27;151.95;;;2.70;99.90;;;;;;5052752;28;20036;-65
2024/01/24 01:18:56;;;;;;;141.93;82.68;;;2.60;99.90;;;;;;5052623;28;20108;-64
2024/01/24 01:21:22;;;;;;;118.57;68.72;;;2.50;99.90;;;;;;5052622;28;20044;-65
2024/01/24 01:23:48;;;;;;;114.45;64.35;;;2.50;99.90;;;;;;5052665;28;20017;-62
2024/01/24 01:26:14;;;;;;;89.57;56.85;;;2.60;99.90;;;;;;5052663;28;20029;-65
2024/01/24 01:28:39;;;;;;;117.95;60.80;;;2.60;99.90;;;;;;5052452;28;20017;-66
2024/01/24 01:31:05;;;;;;;77.93;50.63;;;2.70;99.90;;;;;;5052578;28;20408;-66
2024/01/24 01:33:31;;;;;;;70.30;46.65;;;2.80;99.90;;;;;;5052582;28;20471;-62
2024/01/24 01:35:56;;;;;;;85.35;50.38;;;2.80;99.90;;;;;;5052539;28;20029;-64
2024/01/24 01:38:22;;;;;;;61.85;40.83;;;2.90;99.90;;;;;;5052470;28;20031;-65
2024/01/24 01:40:48;;;;;;;55.78;35.72;;;2.80;99.90;;;;;;5052619;28;20165;-64
2024/01/24 01:43:15;;;;;;;43.70;30.85;;;2.80;99.90;;;;;;5055866;28;20021;-64
2024/01/24 01:45:41;;;;;;;42.38;30.83;;;2.80;99.90;;;;;;5056020;28;20021;-65
2024/01/24 01:48:11;;;;;;;38.97;28.63;;;2.80;99.90;;;;;;5056039;28;20047;-65
2024/01/24 01:50:38;;;;;;;43.20;29.90;;;2.90;99.90;;;;;;5055967;28;20033;-65
2024/01/24 01:53:05;;;;;;;66.70;39.92;;;2.80;99.90;;;;;;5055874;28;20028;-66
2024/01/24 01:55:32;;;;;;;74.88;42.85;;;2.90;99.90;;;;;;5055766;28;20104;-64
2024/01/24 01:57:59;;;;;;;47.17;32.03;;;2.70;99.90;;;;;;5055781;28;20033;-65
2024/01/24 02:00:25;;;;;;;41.80;28.65;;;2.70;99.90;;;;;;5055726;28;20063;-62
2024/01/24 02:02:51;;;;;;;41.83;27.15;;;2.60;99.90;;;;;;5055876;28;20013;-63
2024/01/24 02:05:18;;;;;;;33.47;24.15;;;2.60;99.90;;;;;;5055556;28;20056;-67
2024/01/24 02:07:44;;;;;;;44.55;28.70;;;2.60;99.90;;;;;;5055620;28;20025;-64
2024/01/24 02:10:14;;;;;;;80.20;39.72;;;2.70;99.90;;;;;;5055469;28;20032;-64
2024/01/24 02:12:40;;;;;;;55.55;31.58;;;2.60;99.90;;;;;;5055517;28;20060;-64
2024/01/24 02:15:08;;;;;;;119.00;49.40;;;2.50;99.90;;;;;;5055403;28;20025;-67
2024/01/24 02:17:34;;;;;;;40.85;27.67;;;2.50;99.90;;;;;;5055424;28;20025;-66
2024/01/24 02:20:00;;;;;;;38.42;27.30;;;2.40;99.90;;;;;;5055415;28;20459;-66
2024/01/24 02:22:26;;;;;;;40.72;27.15;;;2.50;99.90;;;;;;5055326;28;20029;-65
2024/01/24 02:24:52;;;;;;;41.80;29.23;;;2.50;99.90;;;;;;5055191;28;20025;-66
2024/01/24 02:27:17;;;;;;;41.17;26.27;;;2.60;99.90;;;;;;5055317;28;20094;-65
2024/01/24 02:29:43;;;;;;;142.80;54.67;;;2.60;99.90;;;;;;5055218;28;20021;-67
2024/01/24 02:32:09;;;;;;;173.95;66.88;;;2.60;99.90;;;;;;5055351;28;20021;-65
2024/01/24 02:34:35;;;;;;;88.65;44.47;;;2.40;99.90;;;;;;5055297;28;20029;-67
2024/01/24 02:37:00;;;;;;;102.28;47.35;;;2.30;99.90;;;;;;5053753;28;20406;-67
2024/01/24 02:39:26;;;;;;;54.45;34.90;;;2.30;99.90;;;;;;5054826;28;20028;-64
2024/01/24 02:41:53;;;;;;;45.08;32.97;;;2.30;99.90;;;;;;5055026;28;20445;-63
2024/01/24 02:44:18;;;;;;;51.15;31.80;;;2.40;99.90;;;;;;5054975;28;20017;-66
2024/01/24 02:46:44;;;;;;;68.07;34.97;;;2.50;99.90;;;;;;5054927;28;20391;-66
2024/01/24 02:49:10;;;;;;;42.80;27.67;;;2.60;99.90;;;;;;5054894;28;20021;-63
2024/01/24 02:51:36;;;;;;;133.27;46.85;;;2.70;99.90;;;;;;5053625;28;20040;-66
2024/01/24 02:54:02;;;;;;;100.47;45.22;;;2.60;99.90;;;;;;5054080;28;20360;-64
2024/01/24 02:56:28;;;;;;;69.00;39.45;;;2.60;99.90;;;;;;5054925;28;20025;-64
2024/01/24 02:58:54;;;;;;;55.17;34.13;;;2.40;99.90;;;;;;5054757;28;20114;-66
2024/01/24 03:01:19;;;;;;;44.72;29.58;;;2.30;99.90;;;;;;5054577;28;20450;-67
2024/01/24 03:03:45;;;;;;;45.17;29.08;;;2.40;99.90;;;;;;5054637;28;20076;-67
2024/01/24 03:06:11;;;;;;;37.17;25.23;;;2.40;99.90;;;;;;5054585;28;20123;-63
2024/01/24 03:08:56;;;;;;;31.90;22.58;;;2.50;99.90;;;;;;5054431;28;20021;-63
2024/01/24 03:11:22;;;;;;;26.75;18.73;;;2.50;99.90;;;;;;5054455;28;20021;-65
2024/01/24 03:13:48;;;;;;;23.30;17.42;;;2.50;99.90;;;;;;5054390;28;20041;-65
2024/01/24 03:16:14;;;;;;;28.95;17.85;;;2.50;99.90;;;;;;5054214;28;20091;-65
2024/01/24 03:18:40;;;;;;;59.08;26.05;;;2.60;99.90;;;;;;5054339;28;20479;-65
2024/01/24 03:21:08;;;;;;;24.13;18.27;;;2.60;99.90;;;;;;5053004;28;20056;-67
2024/01/24 03:23:38;;;;;;;31.00;19.90;;;2.50;99.90;;;;;;5054043;28;20017;-64
2024/01/24 03:26:04;;;;;;;27.02;19.45;;;2.40;99.90;;;;;;5054229;28;20033;-64
2024/01/24 03:28:30;;;;;;;22.65;17.20;;;2.40;99.90;;;;;;5054235;28;20023;-67
2024/01/24 03:30:55;;;;;;;22.35;17.15;;;2.30;99.90;;;;;;5054103;28;20447;-62
2024/01/24 03:33:21;;;;;;;87.20;21.45;;;2.30;99.90;;;;;;5054157;28;20029;-64
2024/01/24 03:35:47;;;;;;;54.97;25.05;;;2.40;99.90;;;;;;5053989;28;20021;-62
2024/01/24 03:38:13;;;;;;;27.92;17.88;;;2.30;99.90;;;;;;5053724;28;20032;-66
2024/01/24 03:40:39;;;;;;;20.63;15.13;;;2.30;99.90;;;;;;5053995;28;20082;-64
2024/01/24 03:43:05;;;;;;;25.05;17.02;;;2.30;99.90;;;;;;5053868;28;20379;-63
2024/01/24 03:45:31;;;;;;;22.38;16.90;;;2.30;99.90;;;;;;5052612;28;20017;-65
2024/01/24 03:47:57;;;;;;;24.17;16.40;;;2.30;99.90;;;;;;5054256;28;20029;-63
2024/01/24 03:50:22;;;;;;;25.63;17.75;;;2.30;99.90;;;;;;5053789;28;20033;-63
2024/01/24 03:52:48;;;;;;;21.52;15.13;;;2.20;99.90;;;;;;5053631;28;20025;-66
2024/01/24 03:55:14;;;;;;;17.95;13.85;;;2.20;99.90;;;;;;5053565;28;20021;-62
2024/01/24 03:57:40;;;;;;;23.02;15.88;;;2.30;99.90;;;;;;5053550;28;20391;-66
2024/01/24 04:00:06;;;;;;;18.58;14.98;;;2.30;99.90;;;;;;5053597;28;20029;-62
2024/01/24 04:02:32;;;;;;;23.85;16.45;;;2.40;99.90;;;;;;5053503;28;20044;-63
2024/01/24 04:04:58;;;;;;;24.75;17.42;;;2.40;99.90;;;;;;5052579;28;20077;-67
2024/01/24 04:07:24;;;;;;;45.88;28.35;;;2.40;99.90;;;;;;5053388;28;20025;-64
2024/01/24 04:09:49;;;;;;;55.20;29.27;;;2.30;99.90;;;;;;5053631;28;20459;-65
2024/01/24 04:12:15;;;;;;;51.75;29.67;;;2.20;99.90;;;;;;5053477;28;20028;-64
2024/01/24 04:14:41;;;;;;;45.13;25.60;;;2.10;99.90;;;;;;5053431;28;20391;-62
2024/01/24 04:17:06;;;;;;;32.38;23.38;;;2.00;99.90;;;;;;5053110;28;20017;-63
2024/01/24 04:19:32;;;;;;;27.85;20.45;;;2.00;99.90;;;;;;5053346;28;20078;-67
2024/01/24 04:21:58;;;;;;;25.85;18.52;;;2.00;99.90;;;;;;5053077;28;20017;-65
2024/01/24 04:24:23;;;;;;;22.10;16.88;;;2.10;99.90;;;;;;5053249;28;20021;-66
2024/01/24 04:26:49;;;;;;;24.95;17.35;;;2.10;99.90;;;;;;5053199;28;20497;-62
2024/01/24 04:29:16;;;;;;;36.35;24.00;;;2.20;99.90;;;;;;5053166;28;20047;-64
2024/01/24 04:31:42;;;;;;;54.38;25.05;;;2.20;99.90;;;;;;5053134;28;20021;-64
2024/01/24 04:34:08;;;;;;;63.90;29.35;;;2.20;99.90;;;;;;5053103;28;20032;-65
2024/01/24 04:36:35;;;;;;;95.15;37.58;;;2.20;99.90;;;;;;5053151;28;20040;-66
2024/01/24 04:39:00;;;;;;;97.90;37.45;;;2.10;99.90;;;;;;5053171;28;20379;-65
2024/01/24 04:41:26;;;;;;;68.78;34.50;;;2.10;99.90;;;;;;5052987;28;20017;-65
2024/01/24 04:43:52;;;;;;;44.38;26.00;;;2.00;99.90;;;;;;5053120;28;20084;-64
2024/01/24 04:46:19;;;;;;;48.25;26.95;;;1.90;99.90;;;;;;5053110;28;20035;-66
2024/01/24 04:48:45;;;;;;;38.13;24.13;;;2.00;99.90;;;;;;5052986;28;20032;-63
2024/01/24 04:51:11;;;;;;;91.47;55.88;;;2.00;99.90;;;;;;5051687;28;20100;-64
2024/01/24 04:53:37;;;;;;;100.45;59.28;;;2.10;99.90;;;;;;5053127;28;20100;-66
2024/01/24 04:56:03;;;;;;;70.03;43.70;;;1.90;99.90;;;;;;5053049;28;20017;-65
2024/01/24 04:58:29;;;;;;;52.20;37.35;;;1.70;99.90;;;;;;5053162;28;20028;-65
2024/01/24 05:00:55;;;;;;;42.95;32.50;;;1.80;99.90;;;;;;5052968;28;20013;-63
2024/01/24 05:03:21;;;;;;;46.97;32.42;;;1.80;99.90;;;;;;5052734;28;20025;-66
2024/01/24 05:05:47;;;;;;;39.47;28.73;;;1.90;99.90;;;;;;5052712;28;20036;-63
2024/01/24 05:08:12;;;;;;;36.72;25.73;;;1.90;99.90;;;;;;5052892;28;20021;-67
2024/01/24 05:10:39;;;;;;;30.80;22.75;;;1.90;99.90;;;;;;5052744;28;20024;-64
2024/01/24 05:13:04;;;;;;;28.10;21.23;;;1.90;99.90;;;;;;5052678;28;20017;-66
2024/01/24 05:15:30;;;;;;;23.67;18.33;;;2.00;99.90;;;;;;5053680;28;20032;-65
2024/01/24 05:17:56;;;;;;;24.52;17.17;;;2.00;99.90;;;;;;5055283;28;20080;-65
2024/01/24 05:20:21;;;;;;;45.10;20.02;;;2.00;99.90;;;;;;5056273;28;20021;-66
2024/01/24 05:22:47;;;;;;;19.52;14.15;;;2.00;99.90;;;;;;5056557;28;20021;-66
2024/01/24 05:25:13;;;;;;;32.75;17.27;;;2.00;99.90;;;;;;5055263;28;20029;-65
2024/01/24 05:27:39;;;;;;;26.35;15.77;;;1.90;99.90;;;;;;5056305;28;20025;-66
2024/01/24 05:30:05;;;;;;;23.27;15.13;;;1.90;99.90;;;;;;5056507;28;20028;-64
2024/01/24 05:32:31;;;;;;;23.52;17.35;;;1.90;99.90;;;;;;5056392;28;20017;-66
2024/01/24 05:34:57;;;;;;;19.50;15.13;;;2.00;99.90;;;;;;5056051;28;20426;-63
2024/01/24 05:37:23;;;;;;;26.98;17.85;;;1.90;99.90;;;;;;5056218;28;20037;-65
2024/01/24 05:39:49;;;;;;;26.00;17.50;;;2.00;99.90;;;;;;5056352;28;20424;-63
2024/01/24 05:42:14;;;;;;;36.25;22.10;;;2.00;99.90;;;;;;5056169;28;20494;-64
2024/01/24 05:44:40;;;;;;;51.13;29.13;;;2.10;99.90;;;;;;5056051;28;20021;-65
2024/01/24 05:47:06;;;;;;;30.60;20.98;;;2.00;99.90;;;;;;5056125;28;20383;-63
2024/01/24 05:49:37;;;;;;;36.42;23.63;;;2.00;99.90;;;;;;5055914;28;20025;-66
2024/01/24 05:52:04;;;;;;;28.02;20.23;;;1.90;99.90;;;;;;5055894;28;20518;-66
2024/01/24 05:54:30;;;;;;;36.15;21.65;;;1.90;99.90;;;;;;5055905;28;20032;-65
2024/01/24 05:56:57;;;;;;;28.35;20.52;;;2.00;99.90;;;;;;5055789;28;20486;-64
2024/01/24 05:59:23;;;;;;;31.98;18.98;;;2.00;99.90;;;;;;5055727;28;20021;-64
2024/01/24 06:01:49;;;;;;;23.02;15.82;;;2.00;99.90;;;;;;5055765;28;20025;-66
2024/01/24 06:04:15;;;;;;;19.63;14.98;;;2.00;99.90;;;;;;5055455;28;20431;-63
2024/01/24 06:06:41;;;;;;;29.08;15.75;;;2.00;99.90;;;;;;5055680;28;20025;-63
2024/01/24 06:09:06;;;;;;;22.27;15.13;;;2.00;99.90;;;;;;5055725;28;20021;-62
2024/01/24 06:11:32;;;;;;;23.38;17.48;;;2.00;99.90;;;;;;5055614;28;20049;-61
2024/01/24 06:13:58;;;;;;;25.42;18.10;;;2.00;99.90;;;;;;5055240;28;20021;-67
2024/01/24 06:16:23;;;;;;;29.90;20.48;;;2.10;99.90;;;;;;5055269;28;20116;-64
2024/01/24 06:18:49;;;;;;;26.77;19.63;;;2.10;99.90;;;;;;5055411;28;20024;-66
2024/01/24 06:21:15;;;;;;;40.17;25.75;;;2.10;99.90;;;;;;5055380;28;20025;-65
2024/01/24 06:23:41;;;;;;;34.90;23.52;;;2.10;99.90;;;;;;5055340;28;20060;-64
2024/01/24 06:26:06;;;;;;;49.03;30.25;;;2.10;99.90;;;;;;5055352;28;20032;-66
2024/01/24 06:28:32;;;;;;;34.15;24.10;;;2.00;99.90;;;;;;5054479;28;20210;-65
2024/01/24 06:30:58;;;;;;;38.90;27.33;;;1.80;99.90;;;;;;5055238;28;20127;-65
2024/01/24 06:33:24;;;;;;;33.05;24.63;;;1.80;99.90;;;;;;5053782;28;20472;-66
2024/01/24 06:35:50;;;;;;;37.70;27.38;;;1.80;99.90;;;;;;5055101;28;20094;-63
2024/01/24 06:38:15;;;;;;;40.55;28.02;;;1.90;99.90;;;;;;5055173;28;20079;-65
2024/01/24 06:40:41;;;;;;;39.50;27.90;;;2.00;99.90;;;;;;5053837;28;20029;-64
2024/01/24 06:43:07;;;;;;;29.27;21.50;;;2.00;99.90;;;;;;5054866;28;20024;-62
2024/01/24 06:45:32;;;;;;;26.98;19.63;;;2.10;99.90;;;;;;5054868;28;20114;-63
2024/01/24 06:47:58;;;;;;;29.25;20.38;;;2.10;99.90;;;;;;5053927;28;20102;-62
2024/01/24 06:50:24;;;;;;;28.10;19.55;;;2.10;99.90;;;;;;5055005;28;20028;-61
2024/01/24 06:52:50;;;;;;;28.88;20.95;;;2.20;99.90;;;;;;5054860;28;20025;-62
2024/01/24 06:55:17;;;;;;;32.30;23.15;;;2.10;99.90;;;;;;5053487;28;20096;-63
2024/01/24 06:57:44;;;;;;;37.25;24.48;;;2.10;99.90;;;;;;5054667;28;20083;-64
2024/01/24 07:00:10;;;;;;;34.22;24.25;;;2.10;99.90;;;;;;5053309;28;20025;-65
2024/01/24 07:02:36;;;;;;;31.13;23.52;;;2.10;99.90;;;;;;5054240;28;20086;-63
2024/01/24 07:05:03;;;;;;;35.63;23.88;;;2.20;99.90;;;;;;5053165;28;20511;-62
2024/01/24 07:07:29;;;;;;;41.53;27.55;;;2.20;99.90;;;;;;5054619;28;20429;-64
2024/01/24 07:09:55;;;;;;;36.47;26.10;;;2.30;99.90;;;;;;5053227;28;20036;-63
2024/01/24 07:12:21;;;;;;;32.60;23.45;;;2.30;99.90;;;;;;5054544;28;20017;-67
2024/01/24 07:14:50;;;;;;;43.70;30.75;;;2.30;99.90;;;;;;5053048;28;20474;-65
2024/01/24 07:17:15;;;;;;;32.05;22.75;;;2.40;99.90;;;;;;5054295;28;20028;-64
2024/01/24 07:19:41;;;;;;;36.15;24.73;;;2.50;99.90;;;;;;5054415;28;20542;-65
2024/01/24 07:22:07;;;;;;;45.28;29.98;;;2.70;99.90;;;;;;5054353;28;20021;-64
2024/01/24 07:24:32;;;;;;;34.85;25.85;;;2.70;99.90;;;;;;5054144;28;20025;-65
2024/01/24 07:26:58;;;;;;;36.05;27.23;;;2.70;99.90;;;;;;5052893;28;20127;-65
2024/01/24 07:29:24;;;;;;;44.25;30.40;;;2.80;99.90;;;;;;5053938;28;20091;-63
2024/01/24 07:31:50;;;;;;;35.92;26.27;;;2.80;99.90;;;;;;5053986;28;20383;-62
2024/01/24 07:34:16;;;;;;;29.98;23.52;;;2.80;99.90;;;;;;5053996;28;20021;-63
2024/01/24 07:36:42;;;;;;;38.90;28.23;;;2.80;99.90;;;;;;5054020;28;20108;-62
2024/01/24 07:39:08;;;;;;;36.92;27.15;;;2.70;99.90;;;;;;5053804;28;20103;-65
2024/01/24 07:41:34;;;;;;;48.58;34.28;;;2.70;99.90;;;;;;5054036;28;20060;-66
2024/01/24 07:44:00;;;;;;;41.38;29.50;;;2.80;99.90;;;;;;5053688;28;20023;-63
2024/01/24 07:46:27;;;;;;;39.65;29.88;;;2.80;99.90;;;;;;5053894;28;20024;-66
2024/01/24 07:48:53;;;;;;;47.80;33.70;;;3.00;99.90;;;;;;5053787;28;20424;-64
2024/01/24 07:51:20;;;;;;;45.95;35.13;;;3.20;99.90;;;;;;5053717;28;20524;-64
2024/01/24 07:53:47;;;;;;;43.88;34.15;;;3.90;99.90;;;;;;5053703;28;20521;-63
2024/01/24 07:56:13;;;;;;;40.88;31.20;;;4.30;98.70;;;;;;5053529;28;20029;-67
2024/01/24 07:58:42;;;;;;;33.55;27.83;;;4.50;99.20;;;;;;5053446;28;20021;-64
2024/01/24 08:01:09;;;;;;;32.92;26.73;;;4.70;97.20;;;;;;5052465;28;20437;-63
2024/01/24 08:03:34;;;;;;;32.33;24.60;;;4.70;96.60;;;;;;5053236;28;20060;-63
2024/01/24 08:06:00;;;;;;;27.92;23.73;;;4.70;96.50;;;;;;5052316;28;20100;-65
2024/01/24 08:08:27;;;;;;;26.92;22.75;;;4.90;96.20;;;;;;5053482;28;20056;-67
2024/01/24 08:10:53;;;;;;;28.13;22.35;;;4.90;96.20;;;;;;5049653;28;20017;-62
2024/01/24 08:13:19;;;;;;;29.67;23.67;;;4.90;95.30;;;;;;5051780;28;20021;-67
2024/01/24 08:15:48;;;;;;;31.88;24.33;;;4.90;96.30;;;;;;5053658;28;20025;-66
2024/01/24 08:18:14;;;;;;;33.08;27.40;;;4.90;96.70;;;;;;5051947;28;20033;-66
2024/01/24 08:20:40;;;;;;;42.88;32.85;;;4.80;97.00;;;;;;5053398;28;20079;-65
2024/01/24 08:23:06;;;;;;;40.70;31.08;;;4.90;97.70;;;;;;5053389;28;20029;-65
2024/01/24 08:25:31;;;;;;;36.13;30.15;;;5.00;98.00;;;;;;5053031;28;20109;-64
2024/01/24 08:27:57;;;;;;;51.83;39.05;;;5.00;98.30;;;;;;5051869;28;20025;-64
2024/01/24 08:30:23;;;;;;;42.92;35.05;;;5.00;97.10;;;;;;5053184;28;20108;-65
2024/01/24 08:32:50;;;;;;;42.15;32.78;;;5.30;96.90;;;;;;5053050;28;20104;-64
2024/01/24 08:35:16;;;;;;;40.47;31.42;;;5.60;96.50;;;;;;5053294;28;20417;-66
2024/01/24 08:37:42;;;;;;;34.28;28.35;;;5.80;96.00;;;;;;5051886;28;20076;-64
2024/01/24 08:40:10;;;;;;;33.05;28.40;;;5.90;94.10;;;;;;5053155;28;20387;-66
2024/01/24 08:42:41;;;;;;;31.25;26.40;;;6.00;93.70;;;;;;5053236;28;20608;-65
2024/01/24 08:45:10;;;;;;;33.05;25.58;;;5.90;94.20;;;;;;5051862;28;20382;-63
2024/01/24 08:47:39;;;;;;;27.58;24.20;;;5.80;94.00;;;;;;5051687;28;20468;-65
2024/01/24 08:50:05;;;;;;;30.45;25.25;;;5.70;94.90;;;;;;5053355;28;20025;-64
2024/01/24 08:52:35;;;;;;;32.47;26.48;;;5.70;94.40;;;;;;5055958;28;20025;-66
2024/01/24 08:55:01;;;;;;;35.38;28.55;;;5.60;94.80;;;;;;5057012;28;20043;-65
2024/01/24 08:57:27;;;;;;;28.20;25.15;;;5.60;95.60;;;;;;5055557;28;20475;-66
2024/01/24 08:59:53;;;;;;;31.05;26.27;;;5.80;96.00;;;;;;5057007;28;20100;-66
2024/01/24 09:02:19;;;;;;;37.47;31.60;;;6.30;95.60;;;;;;5055587;28;20360;-65
2024/01/24 09:04:46;;;;;;;33.45;28.35;;;8.20;92.50;;;;;;5055495;28;20060;-65
2024/01/24 09:07:14;;;;;;;36.55;31.30;;;8.90;73.80;;;;;;5056651;28;20025;-62
2024/01/24 09:09:40;;;;;;;43.15;35.38;;;8.90;75.60;;;;;;5055175;28;20058;-63
2024/01/24 09:12:06;;;;;;;42.50;36.92;;;9.60;73.30;;;;;;5056716;28;20055;-67
2024/01/24 09:14:32;;;;;;;73.45;56.38;;;9.80;67.80;;;;;;5056693;28;20387;-64
2024/01/24 09:16:57;;;;;;;64.63;53.35;;;9.60;62.70;;;;;;5055347;28;20539;-67
2024/01/24 09:19:23;;;;;;;74.15;60.95;;;9.40;62.40;;;;;;5056544;28;20025;-65
2024/01/24 09:21:50;;;;;;;80.10;64.75;;;8.90;69.10;;;;;;5056763;28;20092;-64
2024/01/24 09:24:15;;;;;;;60.25;53.65;;;8.70;73.90;;;;;;5056497;28;20386;-63
2024/01/24 09:26:41;;;;;;;54.13;45.33;;;8.60;78.90;;;;;;5056313;28;20100;-65
2024/01/24 09:29:11;;;;;;;44.35;39.17;;;8.70;78.20;;;;;;5056460;28;20108;-67
2024/01/24 09:31:43;;;;;;;41.25;35.92;;;8.60;76.40;;;;;;5055206;28;20372;-65
2024/01/24 09:34:10;;;;;;;38.40;33.90;;;8.60;80.00;;;;;;5056651;28;20036;-64
2024/01/24 09:36:36;;;;;;;38.67;33.97;;;8.90;83.80;;;;;;5056289;28;20028;-66
2024/01/24 09:39:02;;;;;;;83.60;63.08;;;9.40;83.10;;;;;;5056321;28;20096;-67
2024/01/24 09:41:34;;;;;;;77.57;62.05;;;9.80;79.50;;;;;;5055430;28;20075;-66
2024/01/24 09:44:06;;;;;;;82.43;67.97;;;10.20;74.60;;;;;;5056273;28;20463;-67
2024/01/24 09:46:35;;;;;;;83.93;71.70;;;10.20;70.30;;;;;;5054822;28;20029;-67
2024/01/24 09:49:02;;;;;;;73.55;61.70;;;10.00;69.00;;;;;;5056230;28;20024;-64
2024/01/24 09:51:30;;;;;;;67.32;57.38;;;9.70;69.80;;;;;;5052835;28;20025;-66
2024/01/24 09:54:00;;;;;;;59.30;48.72;;;9.40;74.00;;;;;;5054680;28;20116;-64
2024/01/24 09:56:26;;;;;;;52.15;44.67;;;9.30;80.00;;;;;;5055683;28;20112;-64
2024/01/24 09:58:52;;;;;;;48.05;42.05;;;9.10;81.00;;;;;;5055942;28;20028;-65
2024/01/24 10:01:19;;;;;;;45.40;38.10;;;9.00;83.90;;;;;;5055506;28;20112;-66
2024/01/24 10:03:46;;;;;;;103.47;76.43;;;9.10;84.40;;;;;;5054551;28;20076;-66
2024/01/24 10:06:13;;;;;;;165.52;125.78;;;9.20;85.50;;;;;;5055749;28;20021;-64
2024/01/24 10:08:39;;;;;;;111.38;89.60;;;9.20;84.00;;;;;;5055399;28;20024;-63
2024/01/24 10:11:07;;;;;;;116.40;89.25;;;9.10;87.40;;;;;;5044763;28;20530;-64
2024/01/24 10:13:32;;;;;;;107.72;88.07;;;9.30;89.10;;;;;;5035599;28;20021;-64
2024/01/24 10:16:04;;;;;;;87.55;73.65;;;9.20;86.70;;;;;;5035105;28;20022;-64
2024/01/24 10:18:29;;;;;;;75.97;61.33;;;9.20;86.80;;;;;;5034502;28;20033;-65
2024/01/24 10:20:56;;;;;;;64.45;53.92;;;9.10;88.10;;;;;;5035065;28;20438;-63
2024/01/24 10:23:21;;;;;;;52.47;46.65;;;9.10;87.30;;;;;;5034765;28;20017;-66
2024/01/24 10:25:47;;;;;;;50.63;43.50;;;9.10;89.30;;;;;;5034875;28;20026;-66
2024/01/24 10:28:14;;;;;;;49.55;41.22;;;9.00;87.10;;;;;;5035032;28;20041;-66
2024/01/24 10:30:45;;;;;;;60.58;47.70;;;8.90;90.50;;;;;;5035214;28;20025;-64
2024/01/24 10:33:12;;;;;;;66.47;51.83;;;8.90;90.90;;;;;;5033881;28;20475;-63
2024/01/24 10:35:38;;;;;;;65.30;51.90;;;8.70;92.00;;;;;;5033802;28;20060;-65
2024/01/24 10:38:05;;;;;;;93.22;70.50;;;8.70;93.00;;;;;;5032949;28;20057;-64
2024/01/24 10:40:31;;;;;;;110.35;88.13;;;8.60;93.20;;;;;;5033751;28;20022;-64
2024/01/24 10:43:09;;;;;;;102.97;82.97;;;8.50;95.00;;;;;;5034276;28;20052;-65
2024/01/24 10:45:36;;;;;;;100.25;79.30;;;8.50;95.40;;;;;;5034921;28;20060;-64
2024/01/24 10:48:03;;;;;;;68.95;60.13;;;8.60;95.10;;;;;;5034925;28;20079;-67
2024/01/24 10:50:30;;;;;;;66.53;56.90;;;8.60;94.80;;;;;;5050242;28;20083;-66
2024/01/24 10:52:57;;;;;;;61.78;52.03;;;8.70;95.20;;;;;;5033436;28;20535;-64
2024/01/24 10:55:24;;;;;;;63.58;52.88;;;8.70;93.70;;;;;;5034881;28;20380;-66
2024/01/24 10:57:52;;;;;;;68.53;56.33;;;8.60;93.60;;;;;;5034800;28;20025;-67
2024/01/24 11:00:19;;;;;;;53.03;47.00;;;8.50;94.40;;;;;;5034777;28;20048;-65
2024/01/24 11:02:44;;;;;;;53.17;46.72;;;8.40;95.50;;;;;;5034748;28;20029;-65
2024/01/24 11:05:19;;;;;;;93.07;73.50;;;8.40;95.30;;;;;;5034385;28;20492;-63
2024/01/24 11:07:56;;;;;;;129.23;106.22;;;8.40;94.80;;;;;;5033173;28;20113;-65
2024/01/24 11:10:38;;;;;;;97.68;81.28;;;8.20;97.50;;;;;;5034651;28;20056;-64
2024/01/24 11:13:07;;;;;;;118.38;95.60;;;8.10;98.70;;;;;;5034206;28;20022;-62
2024/01/24 11:15:34;;;;;;;120.68;98.43;;;8.20;97.90;;;;;;5034667;28;20388;-62
2024/01/24 11:18:21;;;;;;;104.32;88.35;;;8.30;97.80;;;;;;5034306;28;20472;-67
2024/01/24 11:20:49;;;;;;;94.20;79.72;;;8.30;97.80;;;;;;5034412;28;20026;-66
2024/01/24 11:23:41;;;;;;;97.68;81.68;;;8.60;96.90;;;;;;5034258;28;20030;-63
2024/01/24 11:26:31;;;;;;;87.78;74.70;;;8.80;96.10;;;;;;5034300;28;20029;-66
2024/01/24 11:29:32;;;;;;;77.78;66.95;;;8.90;94.80;;;;;;5045438;28;20471;-66
2024/01/24 11:31:58;;;;;;;69.28;60.72;;;9.20;94.20;;;;;;5033798;28;20029;-63
2024/01/24 11:34:27;;;;;;;69.30;59.92;;;9.30;93.20;;;;;;5033122;28;20474;-66
2024/01/24 11:36:53;;;;;;;78.28;68.50;;;9.40;91.80;;;;;;5033890;28;20076;-63
2024/01/24 11:39:37;;;;;;;83.38;69.13;;;9.50;91.10;;;;;;5033904;28;20071;-66
2024/01/24 11:42:36;;;;;;;96.75;76.75;;;9.60;91.30;;;;;;5033779;28;20025;-67
2024/01/24 11:45:16;;;;;;;76.03;67.43;;;9.80;93.60;;;;;;5033629;28;20041;-64
2024/01/24 11:47:42;;;;;;;93.95;76.93;;;9.90;90.00;;;;;;5033626;28;20025;-67
2024/01/24 11:50:09;;;;;;;80.20;69.53;;;9.90;86.10;;;;;;5033901;28;20029;-66
2024/01/24 11:52:34;;;;;;;83.97;73.43;;;10.10;88.90;;;;;;5048767;28;20361;-67
2024/01/24 11:55:00;;;;;;;89.45;75.60;;;10.30;90.90;;;;;;5032241;28;20024;-67
2024/01/24 11:57:27;;;;;;;89.88;73.97;;;10.50;87.30;;;;;;5032378;28;20113;-66
2024/01/24 11:59:53;;;;;;;82.95;73.32;;;10.50;85.30;;;;;;5033594;28;20021;-65
2024/01/24 12:02:19;;;;;;;77.53;67.18;;;10.80;83.20;;;;;;5033432;28;20033;-66
2024/01/24 12:04:53;;;;;;;74.72;66.53;;;11.10;78.80;;;;;;5033316;28;20047;-65
2024/01/24 12:07:19;;;;;;;;;;;11.30;77.70;;;;;;5033739;28;20030;-66
2024/01/24 12:09:45;;;;;;;74.95;64.85;;;11.60;76.30;;;;;;5033374;28;19908;-63
2024/01/24 12:12:12;;;;;;;74.55;64.85;;;11.80;70.00;;;;;;5033742;28;20421;-66
2024/01/24 12:14:39;;;;;;;84.90;74.50;;;12.10;66.10;;;;;;5033435;28;20052;-65
2024/01/24 12:17:05;;;;;;;78.30;69.55;;;12.20;66.90;;;;;;5048511;28;20033;-64
2024/01/24 12:19:31;;;;;;;74.65;66.45;;;12.30;64.80;;;;;;5033354;28;20112;-64
2024/01/24 12:22:00;;;;;;;67.75;60.53;;;12.40;64.40;;;;;;5033074;28;20117;-65
2024/01/24 12:24:26;;;;;;;72.18;64.63;;;12.50;63.00;;;;;;5033112;28;20025;-66
2024/01/24 12:26:52;;;;;;;80.85;70.28;;;12.50;64.60;;;;;;5032836;28;20024;-66
2024/01/24 12:29:18;;;;;;;93.13;82.05;;;12.60;64.80;;;;;;5033186;28;20025;-65
2024/01/24 12:31:46;;;;;;;87.13;76.80;;;12.60;62.30;;;;;;5033070;28;20036;-63
2024/01/24 12:34:12;;;;;;;117.43;102.18;;;12.50;63.40;;;;;;5033110;28;20037;-64